Spring Lake, North Carolina
Current Conditions -  °F | °C
As of 8:58 PM on Thursday 20 Nov 2014 (Local Time) from KPOB Reporting Station
Clear Clear  
Wind Chill: 39°   Ceiling: Unl
Heat Index: 44°   Visibility: 10mi
Dew Point: 31°   Wind: 10mph
Humidity: 59%   Direction: 240°WSW
Pressure: 30.11"   Gusts: NA
Location:  35.17°N, 78.97°W
Report Text: KPOB 210158Z AUTO 24009KT 10SM CLR 07/M01 A3011 RMK AO2 SLP200 T00671008
Loading
Personal Weather Stations






























Interactive Weather Map New forecast layout! Learn more

10-Day Weather Forecast

Advertisements
Track Severe Weather on mobile